sensor_id;sensor_type;location;lat;lon;timestamp;temperature;humidity
10492;DHT22;5293;51.464;-2.566;2022-10-17T00:01:10;15.80;99.90
10492;DHT22;5293;51.464;-2.566;2022-10-17T00:03:37;15.70;99.90
10492;DHT22;5293;51.464;-2.566;2022-10-17T00:06:05;15.70;99.90
10492;DHT22;5293;51.464;-2.566;2022-10-17T00:08:31;15.60;99.90
10492;DHT22;5293;51.464;-2.566;2022-10-17T00:10:59;15.70;99.90
10492;DHT22;5293;51.464;-2.566;2022-10-17T00:13:25;15.60;99.90
10492;DHT22;5293;51.464;-2.566;2022-10-17T00:15:51;15.60;99.90
10492;DHT22;5293;51.464;-2.566;2022-10-17T00:18:17;15.60;99.90
10492;DHT22;5293;51.464;-2.566;2022-10-17T00:20:43;15.60;99.90
10492;DHT22;5293;51.464;-2.566;2022-10-17T00:23:08;15.60;99.90
10492;DHT22;5293;51.464;-2.566;2022-10-17T00:25:34;15.60;99.90
10492;DHT22;5293;51.464;-2.566;2022-10-17T00:28:01;15.60;99.90
10492;DHT22;5293;51.464;-2.566;2022-10-17T00:30:27;15.60;99.90
10492;DHT22;5293;51.464;-2.566;2022-10-17T00:32:53;15.60;99.90
10492;DHT22;5293;51.464;-2.566;2022-10-17T00:35:18;15.60;99.90
10492;DHT22;5293;51.464;-2.566;2022-10-17T00:37:44;15.70;99.90
10492;DHT22;5293;51.464;-2.566;2022-10-17T00:40:10;15.70;99.90
10492;DHT22;5293;51.464;-2.566;2022-10-17T00:42:35;15.70;99.90
10492;DHT22;5293;51.464;-2.566;2022-10-17T00:45:13;15.70;99.90
10492;DHT22;5293;51.464;-2.566;2022-10-17T00:47:39;15.70;99.90
10492;DHT22;5293;51.464;-2.566;2022-10-17T00:50:06;15.70;99.90
10492;DHT22;5293;51.464;-2.566;2022-10-17T00:52:32;15.70;99.90
10492;DHT22;5293;51.464;-2.566;2022-10-17T00:55:16;15.70;99.90
10492;DHT22;5293;51.464;-2.566;2022-10-17T00:57:43;15.70;99.90
10492;DHT22;5293;51.464;-2.566;2022-10-17T01:00:10;15.70;99.90
10492;DHT22;5293;51.464;-2.566;2022-10-17T01:02:36;15.70;99.90
10492;DHT22;5293;51.464;-2.566;2022-10-17T01:05:03;15.70;99.90
10492;DHT22;5293;51.464;-2.566;2022-10-17T01:07:29;15.70;99.90
10492;DHT22;5293;51.464;-2.566;2022-10-17T01:09:55;15.80;99.90
10492;DHT22;5293;51.464;-2.566;2022-10-17T01:23:29;15.80;99.90
10492;DHT22;5293;51.464;-2.566;2022-10-17T01:31:31;15.70;99.90
10492;DHT22;5293;51.464;-2.566;2022-10-17T01:34:05;15.80;99.90
10492;DHT22;5293;51.464;-2.566;2022-10-17T01:41:49;15.80;99.90
10492;DHT22;5293;51.464;-2.566;2022-10-17T01:44:28;15.80;99.90
10492;DHT22;5293;51.464;-2.566;2022-10-17T01:47:04;15.80;99.90
10492;DHT22;5293;51.464;-2.566;2022-10-17T01:49:31;15.80;99.90
10492;DHT22;5293;51.464;-2.566;2022-10-17T01:52:18;15.80;99.90
10492;DHT22;5293;51.464;-2.566;2022-10-17T01:54:57;15.90;99.90
10492;DHT22;5293;51.464;-2.566;2022-10-17T01:57:33;15.90;99.90
10492;DHT22;5293;51.464;-2.566;2022-10-17T02:00:02;15.80;99.90
10492;DHT22;5293;51.464;-2.566;2022-10-17T02:02:30;15.90;99.90
10492;DHT22;5293;51.464;-2.566;2022-10-17T02:04:56;15.90;99.90
10492;DHT22;5293;51.464;-2.566;2022-10-17T02:07:22;15.90;99.90
10492;DHT22;5293;51.464;-2.566;2022-10-17T02:09:48;15.90;99.90
10492;DHT22;5293;51.464;-2.566;2022-10-17T02:18:24;15.90;99.90
10492;DHT22;5293;51.464;-2.566;2022-10-17T02:20:55;15.90;99.90
10492;DHT22;5293;51.464;-2.566;2022-10-17T02:26:16;16.00;99.90
10492;DHT22;5293;51.464;-2.566;2022-10-17T02:29:02;15.90;99.90
10492;DHT22;5293;51.464;-2.566;2022-10-17T02:31:41;16.00;99.90
10492;DHT22;5293;51.464;-2.566;2022-10-17T02:34:18;15.90;99.90
10492;DHT22;5293;51.464;-2.566;2022-10-17T02:36:52;15.90;99.90
10492;DHT22;5293;51.464;-2.566;2022-10-17T02:39:21;15.90;99.90
10492;DHT22;5293;51.464;-2.566;2022-10-17T02:41:48;15.90;99.90
10492;DHT22;5293;51.464;-2.566;2022-10-17T02:44:15;15.90;99.90
10492;DHT22;5293;51.464;-2.566;2022-10-17T02:46:41;15.90;99.90
10492;DHT22;5293;51.464;-2.566;2022-10-17T02:49:20;16.00;99.90
10492;DHT22;5293;51.464;-2.566;2022-10-17T02:55:00;16.00;99.90
10492;DHT22;5293;51.464;-2.566;2022-10-17T02:57:40;16.00;99.90
10492;DHT22;5293;51.464;-2.566;2022-10-17T03:00:10;16.00;99.90
10492;DHT22;5293;51.464;-2.566;2022-10-17T03:02:39;16.00;99.90
10492;DHT22;5293;51.464;-2.566;2022-10-17T03:05:05;16.00;99.90
10492;DHT22;5293;51.464;-2.566;2022-10-17T03:07:31;15.90;99.90
10492;DHT22;5293;51.464;-2.566;2022-10-17T03:09:56;15.90;99.90
10492;DHT22;5293;51.464;-2.566;2022-10-17T03:12:22;15.80;99.90
10492;DHT22;5293;51.464;-2.566;2022-10-17T03:14:47;15.80;99.90
10492;DHT22;5293;51.464;-2.566;2022-10-17T03:17:13;15.70;99.90
10492;DHT22;5293;51.464;-2.566;2022-10-17T03:19:39;15.70;99.90
10492;DHT22;5293;51.464;-2.566;2022-10-17T03:22:04;15.60;99.90
10492;DHT22;5293;51.464;-2.566;2022-10-17T03:24:30;15.70;99.90
10492;DHT22;5293;51.464;-2.566;2022-10-17T03:26:56;15.60;99.90
10492;DHT22;5293;51.464;-2.566;2022-10-17T03:29:21;15.60;99.90
10492;DHT22;5293;51.464;-2.566;2022-10-17T03:31:47;15.60;99.90
10492;DHT22;5293;51.464;-2.566;2022-10-17T03:34:13;15.60;99.90
10492;DHT22;5293;51.464;-2.566;2022-10-17T03:36:41;15.60;99.90
10492;DHT22;5293;51.464;-2.566;2022-10-17T03:39:06;15.50;99.90
10492;DHT22;5293;51.464;-2.566;2022-10-17T03:41:32;15.50;99.90
10492;DHT22;5293;51.464;-2.566;2022-10-17T03:43:58;15.50;99.90
10492;DHT22;5293;51.464;-2.566;2022-10-17T03:46:23;15.50;99.90
10492;DHT22;5293;51.464;-2.566;2022-10-17T03:48:49;15.40;99.90
10492;DHT22;5293;51.464;-2.566;2022-10-17T03:51:14;15.40;99.90
10492;DHT22;5293;51.464;-2.566;2022-10-17T03:53:40;15.50;99.90
10492;DHT22;5293;51.464;-2.566;2022-10-17T03:56:22;15.50;99.90
10492;DHT22;5293;51.464;-2.566;2022-10-17T03:58:48;15.50;99.90
10492;DHT22;5293;51.464;-2.566;2022-10-17T04:01:15;15.40;99.90
10492;DHT22;5293;51.464;-2.566;2022-10-17T04:03:42;15.30;99.90
10492;DHT22;5293;51.464;-2.566;2022-10-17T04:06:10;15.30;99.90
10492;DHT22;5293;51.464;-2.566;2022-10-17T04:08:37;15.30;99.90
10492;DHT22;5293;51.464;-2.566;2022-10-17T04:11:05;15.40;99.90
10492;DHT22;5293;51.464;-2.566;2022-10-17T04:13:32;15.30;99.90
10492;DHT22;5293;51.464;-2.566;2022-10-17T04:16:16;15.30;99.90
10492;DHT22;5293;51.464;-2.566;2022-10-17T04:18:42;15.20;99.90
10492;DHT22;5293;51.464;-2.566;2022-10-17T04:21:09;15.20;99.90
10492;DHT22;5293;51.464;-2.566;2022-10-17T04:23:35;15.20;99.90
10492;DHT22;5293;51.464;-2.566;2022-10-17T04:26:01;15.20;99.90
10492;DHT22;5293;51.464;-2.566;2022-10-17T04:28:28;15.10;99.90
10492;DHT22;5293;51.464;-2.566;2022-10-17T04:31:02;15.10;99.90
10492;DHT22;5293;51.464;-2.566;2022-10-17T04:33:28;15.00;99.90
10492;DHT22;5293;51.464;-2.566;2022-10-17T04:36:05;14.90;99.90
10492;DHT22;5293;51.464;-2.566;2022-10-17T04:38:32;14.60;99.90
10492;DHT22;5293;51.464;-2.566;2022-10-17T04:40:59;14.90;99.90
10492;DHT22;5293;51.464;-2.566;2022-10-17T04:43:29;14.80;99.90
10492;DHT22;5293;51.464;-2.566;2022-10-17T04:45:56;14.70;99.90
10492;DHT22;5293;51.464;-2.566;2022-10-17T04:48:22;14.70;99.90
10492;DHT22;5293;51.464;-2.566;2022-10-17T04:50:55;14.80;99.90
10492;DHT22;5293;51.464;-2.566;2022-10-17T04:53:22;14.70;99.90
10492;DHT22;5293;51.464;-2.566;2022-10-17T04:55:48;14.70;99.90
10492;DHT22;5293;51.464;-2.566;2022-10-17T04:58:15;14.70;99.90
10492;DHT22;5293;51.464;-2.566;2022-10-17T05:00:41;14.70;99.90
10492;DHT22;5293;51.464;-2.566;2022-10-17T05:03:06;14.70;99.90
10492;DHT22;5293;51.464;-2.566;2022-10-17T05:05:32;14.70;99.90
10492;DHT22;5293;51.464;-2.566;2022-10-17T05:07:58;14.70;99.90
10492;DHT22;5293;51.464;-2.566;2022-10-17T05:10:24;14.60;99.90
10492;DHT22;5293;51.464;-2.566;2022-10-17T05:12:50;14.60;99.90
10492;DHT22;5293;51.464;-2.566;2022-10-17T05:15:15;14.60;99.90
10492;DHT22;5293;51.464;-2.566;2022-10-17T05:17:41;14.50;99.90
10492;DHT22;5293;51.464;-2.566;2022-10-17T05:20:08;14.50;99.90
10492;DHT22;5293;51.464;-2.566;2022-10-17T05:22:33;14.50;99.90
10492;DHT22;5293;51.464;-2.566;2022-10-17T05:24:59;14.50;99.90
10492;DHT22;5293;51.464;-2.566;2022-10-17T05:27:25;14.40;99.90
10492;DHT22;5293;51.464;-2.566;2022-10-17T05:29:50;14.40;99.90
10492;DHT22;5293;51.464;-2.566;2022-10-17T05:32:16;14.40;99.90
10492;DHT22;5293;51.464;-2.566;2022-10-17T05:34:42;14.30;99.90
10492;DHT22;5293;51.464;-2.566;2022-10-17T05:37:07;14.40;99.90
10492;DHT22;5293;51.464;-2.566;2022-10-17T05:39:33;14.40;99.90
10492;DHT22;5293;51.464;-2.566;2022-10-17T05:41:59;15.20;99.90
10492;DHT22;5293;51.464;-2.566;2022-10-17T05:44:24;14.30;99.90
10492;DHT22;5293;51.464;-2.566;2022-10-17T05:46:50;14.30;99.90
10492;DHT22;5293;51.464;-2.566;2022-10-17T05:49:16;14.30;99.90
10492;DHT22;5293;51.464;-2.566;2022-10-17T05:51:42;14.40;99.90
10492;DHT22;5293;51.464;-2.566;2022-10-17T05:54:08;14.30;99.90
10492;DHT22;5293;51.464;-2.566;2022-10-17T05:56:33;14.40;99.90
10492;DHT22;5293;51.464;-2.566;2022-10-17T05:58:59;14.40;99.90
10492;DHT22;5293;51.464;-2.566;2022-10-17T06:01:25;14.40;99.90
10492;DHT22;5293;51.464;-2.566;2022-10-17T06:03:51;14.30;99.90
10492;DHT22;5293;51.464;-2.566;2022-10-17T06:06:17;14.30;99.90
10492;DHT22;5293;51.464;-2.566;2022-10-17T06:08:43;14.30;99.90
10492;DHT22;5293;51.464;-2.566;2022-10-17T06:11:10;14.30;99.90
10492;DHT22;5293;51.464;-2.566;2022-10-17T06:13:36;14.30;99.90
10492;DHT22;5293;51.464;-2.566;2022-10-17T06:16:02;14.30;99.90
10492;DHT22;5293;51.464;-2.566;2022-10-17T06:18:28;14.30;99.90
10492;DHT22;5293;51.464;-2.566;2022-10-17T06:20:54;14.30;99.90
10492;DHT22;5293;51.464;-2.566;2022-10-17T06:23:25;14.30;99.90
10492;DHT22;5293;51.464;-2.566;2022-10-17T06:25:52;14.30;99.90
10492;DHT22;5293;51.464;-2.566;2022-10-17T06:28:17;14.30;99.90
10492;DHT22;5293;51.464;-2.566;2022-10-17T06:30:43;14.30;99.90
10492;DHT22;5293;51.464;-2.566;2022-10-17T06:33:09;14.30;99.90
10492;DHT22;5293;51.464;-2.566;2022-10-17T06:35:35;14.30;99.90
10492;DHT22;5293;51.464;-2.566;2022-10-17T06:38:00;14.30;99.90
10492;DHT22;5293;51.464;-2.566;2022-10-17T06:40:27;14.40;99.90
10492;DHT22;5293;51.464;-2.566;2022-10-17T06:42:55;14.40;99.90
10492;DHT22;5293;51.464;-2.566;2022-10-17T06:45:20;14.40;99.90
10492;DHT22;5293;51.464;-2.566;2022-10-17T06:47:46;14.30;99.90
10492;DHT22;5293;51.464;-2.566;2022-10-17T06:50:12;14.40;99.90
10492;DHT22;5293;51.464;-2.566;2022-10-17T06:52:37;14.40;99.90
10492;DHT22;5293;51.464;-2.566;2022-10-17T06:55:04;14.40;99.90
10492;DHT22;5293;51.464;-2.566;2022-10-17T06:57:29;14.30;99.90
10492;DHT22;5293;51.464;-2.566;2022-10-17T06:59:55;14.40;99.90
10492;DHT22;5293;51.464;-2.566;2022-10-17T07:02:22;14.30;99.90
10492;DHT22;5293;51.464;-2.566;2022-10-17T07:04:49;14.40;99.90
10492;DHT22;5293;51.464;-2.566;2022-10-17T07:07:14;14.40;99.90
10492;DHT22;5293;51.464;-2.566;2022-10-17T07:09:40;14.40;99.90
10492;DHT22;5293;51.464;-2.566;2022-10-17T07:12:06;14.40;99.90
10492;DHT22;5293;51.464;-2.566;2022-10-17T07:14:34;14.40;99.90
10492;DHT22;5293;51.464;-2.566;2022-10-17T07:17:00;14.40;99.90
10492;DHT22;5293;51.464;-2.566;2022-10-17T07:19:26;14.40;99.90
10492;DHT22;5293;51.464;-2.566;2022-10-17T07:21:52;14.40;99.90
10492;DHT22;5293;51.464;-2.566;2022-10-17T07:24:18;14.40;99.90
10492;DHT22;5293;51.464;-2.566;2022-10-17T07:26:43;14.40;99.90
10492;DHT22;5293;51.464;-2.566;2022-10-17T07:29:09;14.50;99.90
10492;DHT22;5293;51.464;-2.566;2022-10-17T07:31:35;14.50;99.90
10492;DHT22;5293;51.464;-2.566;2022-10-17T07:34:00;14.50;99.90
10492;DHT22;5293;51.464;-2.566;2022-10-17T07:36:26;14.50;99.90
10492;DHT22;5293;51.464;-2.566;2022-10-17T07:38:52;14.60;99.90
10492;DHT22;5293;51.464;-2.566;2022-10-17T07:41:17;14.60;99.90
10492;DHT22;5293;51.464;-2.566;2022-10-17T07:43:44;14.70;99.90
10492;DHT22;5293;51.464;-2.566;2022-10-17T07:46:10;14.60;99.90
10492;DHT22;5293;51.464;-2.566;2022-10-17T07:48:38;14.50;99.90
10492;DHT22;5293;51.464;-2.566;2022-10-17T07:51:08;14.50;99.90
10492;DHT22;5293;51.464;-2.566;2022-10-17T07:53:39;14.50;99.90
10492;DHT22;5293;51.464;-2.566;2022-10-17T07:56:06;14.50;99.90
10492;DHT22;5293;51.464;-2.566;2022-10-17T07:58:32;14.50;99.90
10492;DHT22;5293;51.464;-2.566;2022-10-17T08:01:06;14.60;99.90
10492;DHT22;5293;51.464;-2.566;2022-10-17T08:03:32;14.60;99.90
10492;DHT22;5293;51.464;-2.566;2022-10-17T08:06:01;14.50;99.90
10492;DHT22;5293;51.464;-2.566;2022-10-17T08:08:27;14.60;99.90
10492;DHT22;5293;51.464;-2.566;2022-10-17T08:10:54;14.60;99.90
10492;DHT22;5293;51.464;-2.566;2022-10-17T08:13:21;14.60;99.90
10492;DHT22;5293;51.464;-2.566;2022-10-17T08:15:47;14.60;99.90
10492;DHT22;5293;51.464;-2.566;2022-10-17T08:18:13;14.60;99.90
10492;DHT22;5293;51.464;-2.566;2022-10-17T08:20:40;14.50;99.90
10492;DHT22;5293;51.464;-2.566;2022-10-17T08:23:07;14.50;99.90
10492;DHT22;5293;51.464;-2.566;2022-10-17T08:25:32;14.50;99.90
10492;DHT22;5293;51.464;-2.566;2022-10-17T08:27:58;14.50;99.90
10492;DHT22;5293;51.464;-2.566;2022-10-17T08:30:24;14.60;99.90
10492;DHT22;5293;51.464;-2.566;2022-10-17T08:32:50;14.60;99.90
10492;DHT22;5293;51.464;-2.566;2022-10-17T08:35:16;14.70;99.90
10492;DHT22;5293;51.464;-2.566;2022-10-17T08:37:42;14.70;99.90
10492;DHT22;5293;51.464;-2.566;2022-10-17T08:40:16;14.70;99.90
10492;DHT22;5293;51.464;-2.566;2022-10-17T08:48:19;14.90;99.90
10492;DHT22;5293;51.464;-2.566;2022-10-17T08:53:30;15.00;99.90
10492;DHT22;5293;51.464;-2.566;2022-10-17T08:56:02;15.00;99.90
10492;DHT22;5293;51.464;-2.566;2022-10-17T08:58:32;15.00;99.90
10492;DHT22;5293;51.464;-2.566;2022-10-17T09:06:51;15.20;99.90
10492;DHT22;5293;51.464;-2.566;2022-10-17T09:09:41;15.20;99.90
10492;DHT22;5293;51.464;-2.566;2022-10-17T09:12:27;15.30;99.90
10492;DHT22;5293;51.464;-2.566;2022-10-17T09:18:11;15.30;99.90
10492;DHT22;5293;51.464;-2.566;2022-10-17T09:20:46;15.30;99.90
10492;DHT22;5293;51.464;-2.566;2022-10-17T09:23:19;15.40;99.90
10492;DHT22;5293;51.464;-2.566;2022-10-17T09:25:57;15.40;99.90
10492;DHT22;5293;51.464;-2.566;2022-10-17T09:28:30;15.50;99.90
10492;DHT22;5293;51.464;-2.566;2022-10-17T09:31:06;15.50;99.90
10492;DHT22;5293;51.464;-2.566;2022-10-17T09:33:41;15.60;99.90
10492;DHT22;5293;51.464;-2.566;2022-10-17T09:38:55;15.60;99.90
10492;DHT22;5293;51.464;-2.566;2022-10-17T09:41:25;15.60;99.90
10492;DHT22;5293;51.464;-2.566;2022-10-17T09:43:55;15.60;99.90
10492;DHT22;5293;51.464;-2.566;2022-10-17T09:46:33;15.60;99.90
10492;DHT22;5293;51.464;-2.566;2022-10-17T09:49:15;15.60;99.90
10492;DHT22;5293;51.464;-2.566;2022-10-17T09:51:42;15.70;99.90
10492;DHT22;5293;51.464;-2.566;2022-10-17T09:54:21;15.70;99.90
10492;DHT22;5293;51.464;-2.566;2022-10-17T09:57:05;15.70;99.90
10492;DHT22;5293;51.464;-2.566;2022-10-17T09:59:36;15.80;99.90
10492;DHT22;5293;51.464;-2.566;2022-10-17T10:05:15;15.90;99.90
10492;DHT22;5293;51.464;-2.566;2022-10-17T10:07:42;16.00;99.90
10492;DHT22;5293;51.464;-2.566;2022-10-17T10:10:23;16.00;99.90
10492;DHT22;5293;51.464;-2.566;2022-10-17T10:15:39;16.10;99.90
10492;DHT22;5293;51.464;-2.566;2022-10-17T10:21:07;16.20;99.90
10492;DHT22;5293;51.464;-2.566;2022-10-17T10:23:35;16.20;99.90
10492;DHT22;5293;51.464;-2.566;2022-10-17T10:28:35;16.30;99.90
10492;DHT22;5293;51.464;-2.566;2022-10-17T10:31:04;16.30;99.90
10492;DHT22;5293;51.464;-2.566;2022-10-17T10:33:34;16.30;99.90
10492;DHT22;5293;51.464;-2.566;2022-10-17T10:36:03;16.40;99.90
10492;DHT22;5293;51.464;-2.566;2022-10-17T10:38:31;16.40;99.90
10492;DHT22;5293;51.464;-2.566;2022-10-17T10:41:05;16.40;99.90
10492;DHT22;5293;51.464;-2.566;2022-10-17T10:46:19;16.50;99.90
10492;DHT22;5293;51.464;-2.566;2022-10-17T10:49:01;16.60;99.90
10492;DHT22;5293;51.464;-2.566;2022-10-17T10:51:45;16.60;99.90
10492;DHT22;5293;51.464;-2.566;2022-10-17T10:54:19;16.60;99.90
10492;DHT22;5293;51.464;-2.566;2022-10-17T10:56:47;15.90;99.90
10492;DHT22;5293;51.464;-2.566;2022-10-17T11:02:22;16.60;99.90
10492;DHT22;5293;51.464;-2.566;2022-10-17T11:05:03;16.60;99.90
10492;DHT22;5293;51.464;-2.566;2022-10-17T11:13:12;16.70;99.90
10492;DHT22;5293;51.464;-2.566;2022-10-17T11:15:53;16.80;99.90
10492;DHT22;5293;51.464;-2.566;2022-10-17T11:26:45;17.00;99.90
10492;DHT22;5293;51.464;-2.566;2022-10-17T11:29:13;17.00;99.90
10492;DHT22;5293;51.464;-2.566;2022-10-17T11:31:46;17.00;99.90
10492;DHT22;5293;51.464;-2.566;2022-10-17T11:34:19;16.90;99.90
10492;DHT22;5293;51.464;-2.566;2022-10-17T11:36:55;16.90;99.90
10492;DHT22;5293;51.464;-2.566;2022-10-17T11:39:29;16.90;99.90
10492;DHT22;5293;51.464;-2.566;2022-10-17T11:42:01;17.00;99.90
10492;DHT22;5293;51.464;-2.566;2022-10-17T11:44:36;17.00;99.90
10492;DHT22;5293;51.464;-2.566;2022-10-17T11:50:41;17.30;99.90
10492;DHT22;5293;51.464;-2.566;2022-10-17T11:55:27;17.40;99.90
10492;DHT22;5293;51.464;-2.566;2022-10-17T12:03:20;17.50;99.90
10492;DHT22;5293;51.464;-2.566;2022-10-17T12:11:16;17.30;99.90
10492;DHT22;5293;51.464;-2.566;2022-10-17T12:13:51;17.50;99.90
10492;DHT22;5293;51.464;-2.566;2022-10-17T12:21:25;17.60;99.90
10492;DHT22;5293;51.464;-2.566;2022-10-17T12:23:52;17.50;99.90
10492;DHT22;5293;51.464;-2.566;2022-10-17T12:26:26;17.50;99.90
10492;DHT22;5293;51.464;-2.566;2022-10-17T12:28:52;17.70;99.90
10492;DHT22;5293;51.464;-2.566;2022-10-17T12:33:57;17.80;99.90
10492;DHT22;5293;51.464;-2.566;2022-10-17T12:49:43;18.00;99.90
10492;DHT22;5293;51.464;-2.566;2022-10-17T12:54:51;18.10;99.90
10492;DHT22;5293;51.464;-2.566;2022-10-17T13:00:30;17.80;99.90
10492;DHT22;5293;51.464;-2.566;2022-10-17T13:03:05;17.70;99.90
10492;DHT22;5293;51.464;-2.566;2022-10-17T13:05:37;17.60;99.90
10492;DHT22;5293;51.464;-2.566;2022-10-17T13:08:07;17.60;99.90
10492;DHT22;5293;51.464;-2.566;2022-10-17T13:10:37;17.60;99.90
10492;DHT22;5293;51.464;-2.566;2022-10-17T13:16:02;17.50;99.90
10492;DHT22;5293;51.464;-2.566;2022-10-17T13:18:28;17.50;99.90
10492;DHT22;5293;51.464;-2.566;2022-10-17T13:21:02;17.60;99.90
10492;DHT22;5293;51.464;-2.566;2022-10-17T13:23:31;17.60;99.90
10492;DHT22;5293;51.464;-2.566;2022-10-17T13:26:12;17.50;99.90
10492;DHT22;5293;51.464;-2.566;2022-10-17T13:28:39;17.50;99.90
10492;DHT22;5293;51.464;-2.566;2022-10-17T13:31:05;17.60;99.90
10492;DHT22;5293;51.464;-2.566;2022-10-17T13:33:34;17.60;99.90
10492;DHT22;5293;51.464;-2.566;2022-10-17T13:36:02;17.60;99.90
10492;DHT22;5293;51.464;-2.566;2022-10-17T13:38:31;17.50;99.90
10492;DHT22;5293;51.464;-2.566;2022-10-17T13:40:58;17.50;99.90
10492;DHT22;5293;51.464;-2.566;2022-10-17T13:43:24;17.50;99.90
10492;DHT22;5293;51.464;-2.566;2022-10-17T13:45:53;17.50;99.90
10492;DHT22;5293;51.464;-2.566;2022-10-17T13:48:24;17.50;99.90
10492;DHT22;5293;51.464;-2.566;2022-10-17T13:50:53;17.60;99.90
10492;DHT22;5293;51.464;-2.566;2022-10-17T13:55:59;17.70;99.90
10492;DHT22;5293;51.464;-2.566;2022-10-17T13:58:38;17.70;99.90
10492;DHT22;5293;51.464;-2.566;2022-10-17T14:01:06;17.70;99.90
10492;DHT22;5293;51.464;-2.566;2022-10-17T14:03:32;17.70;99.90
10492;DHT22;5293;51.464;-2.566;2022-10-17T14:08:28;17.80;99.90
10492;DHT22;5293;51.464;-2.566;2022-10-17T14:10:54;17.80;99.90
10492;DHT22;5293;51.464;-2.566;2022-10-17T14:13:22;17.80;99.90
10492;DHT22;5293;51.464;-2.566;2022-10-17T14:15:49;17.70;99.90
10492;DHT22;5293;51.464;-2.566;2022-10-17T14:18:22;17.80;99.90
10492;DHT22;5293;51.464;-2.566;2022-10-17T14:20:50;17.80;99.90
10492;DHT22;5293;51.464;-2.566;2022-10-17T14:26:23;17.90;99.90
10492;DHT22;5293;51.464;-2.566;2022-10-17T14:32:04;18.00;99.90
10492;DHT22;5293;51.464;-2.566;2022-10-17T14:34:33;17.90;99.90
10492;DHT22;5293;51.464;-2.566;2022-10-17T14:37:00;17.80;99.90
10492;DHT22;5293;51.464;-2.566;2022-10-17T14:39:27;17.90;99.90
10492;DHT22;5293;51.464;-2.566;2022-10-17T14:41:53;17.80;99.90
10492;DHT22;5293;51.464;-2.566;2022-10-17T14:44:31;17.90;99.90
10492;DHT22;5293;51.464;-2.566;2022-10-17T14:47:06;17.90;99.90
10492;DHT22;5293;51.464;-2.566;2022-10-17T14:49:40;17.90;99.90
10492;DHT22;5293;51.464;-2.566;2022-10-17T14:54:45;17.70;99.90
10492;DHT22;5293;51.464;-2.566;2022-10-17T14:59:56;17.50;99.90
10492;DHT22;5293;51.464;-2.566;2022-10-17T15:02:28;17.50;99.90
10492;DHT22;5293;51.464;-2.566;2022-10-17T15:04:54;17.50;99.90
10492;DHT22;5293;51.464;-2.566;2022-10-17T15:07:20;17.50;99.90
10492;DHT22;5293;51.464;-2.566;2022-10-17T15:09:48;17.50;99.90
10492;DHT22;5293;51.464;-2.566;2022-10-17T15:12:24;17.50;99.90
10492;DHT22;5293;51.464;-2.566;2022-10-17T15:14:50;17.60;99.90
10492;DHT22;5293;51.464;-2.566;2022-10-17T15:17:31;17.50;99.90
10492;DHT22;5293;51.464;-2.566;2022-10-17T15:19:58;17.40;99.90
10492;DHT22;5293;51.464;-2.566;2022-10-17T15:22:24;17.20;99.90
10492;DHT22;5293;51.464;-2.566;2022-10-17T15:24:50;17.30;99.90
10492;DHT22;5293;51.464;-2.566;2022-10-17T15:27:18;17.20;99.90
10492;DHT22;5293;51.464;-2.566;2022-10-17T15:29:44;17.20;99.90
10492;DHT22;5293;51.464;-2.566;2022-10-17T15:32:10;17.20;99.90
10492;DHT22;5293;51.464;-2.566;2022-10-17T15:34:36;17.20;99.90
10492;DHT22;5293;51.464;-2.566;2022-10-17T15:37:03;17.20;99.90
10492;DHT22;5293;51.464;-2.566;2022-10-17T15:39:29;17.20;99.90
10492;DHT22;5293;51.464;-2.566;2022-10-17T15:41:55;17.30;99.90
10492;DHT22;5293;51.464;-2.566;2022-10-17T15:44:21;17.20;99.90
10492;DHT22;5293;51.464;-2.566;2022-10-17T15:46:46;17.20;99.90
10492;DHT22;5293;51.464;-2.566;2022-10-17T15:49:13;17.20;99.90
10492;DHT22;5293;51.464;-2.566;2022-10-17T15:51:41;17.20;99.90
10492;DHT22;5293;51.464;-2.566;2022-10-17T15:54:07;17.10;99.90
10492;DHT22;5293;51.464;-2.566;2022-10-17T15:56:39;17.10;99.90
10492;DHT22;5293;51.464;-2.566;2022-10-17T15:59:14;17.10;99.90
10492;DHT22;5293;51.464;-2.566;2022-10-17T16:01:42;17.00;99.90
10492;DHT22;5293;51.464;-2.566;2022-10-17T16:04:11;17.20;99.90
10492;DHT22;5293;51.464;-2.566;2022-10-17T16:06:42;17.30;99.90
10492;DHT22;5293;51.464;-2.566;2022-10-17T16:09:09;17.20;99.90
10492;DHT22;5293;51.464;-2.566;2022-10-17T16:11:42;17.20;99.90
10492;DHT22;5293;51.464;-2.566;2022-10-17T16:14:13;17.30;99.90
10492;DHT22;5293;51.464;-2.566;2022-10-17T16:16:40;17.20;99.90
10492;DHT22;5293;51.464;-2.566;2022-10-17T16:19:07;17.10;99.90
10492;DHT22;5293;51.464;-2.566;2022-10-17T16:21:36;17.20;99.90
10492;DHT22;5293;51.464;-2.566;2022-10-17T16:24:03;17.20;99.90
10492;DHT22;5293;51.464;-2.566;2022-10-17T16:26:28;17.20;99.90
10492;DHT22;5293;51.464;-2.566;2022-10-17T16:28:54;17.10;99.90
10492;DHT22;5293;51.464;-2.566;2022-10-17T16:31:29;17.10;99.90
10492;DHT22;5293;51.464;-2.566;2022-10-17T16:33:57;16.90;99.90
10492;DHT22;5293;51.464;-2.566;2022-10-17T16:36:23;16.90;99.90
10492;DHT22;5293;51.464;-2.566;2022-10-17T16:38:49;16.80;99.90
10492;DHT22;5293;51.464;-2.566;2022-10-17T16:41:20;16.80;99.90
10492;DHT22;5293;51.464;-2.566;2022-10-17T16:43:48;16.80;99.90
10492;DHT22;5293;51.464;-2.566;2022-10-17T16:46:14;16.60;99.90
10492;DHT22;5293;51.464;-2.566;2022-10-17T16:48:41;16.70;99.90
10492;DHT22;5293;51.464;-2.566;2022-10-17T16:51:06;16.70;99.90
10492;DHT22;5293;51.464;-2.566;2022-10-17T16:53:32;16.80;99.90
10492;DHT22;5293;51.464;-2.566;2022-10-17T16:56:02;16.70;99.90
10492;DHT22;5293;51.464;-2.566;2022-10-17T16:58:28;16.60;99.90
10492;DHT22;5293;51.464;-2.566;2022-10-17T17:00:58;16.50;99.90
10492;DHT22;5293;51.464;-2.566;2022-10-17T17:03:24;16.50;99.90
10492;DHT22;5293;51.464;-2.566;2022-10-17T17:05:50;16.40;99.90
10492;DHT22;5293;51.464;-2.566;2022-10-17T17:08:16;16.30;99.90
10492;DHT22;5293;51.464;-2.566;2022-10-17T17:10:46;16.20;99.90
10492;DHT22;5293;51.464;-2.566;2022-10-17T17:13:13;16.10;99.90
10492;DHT22;5293;51.464;-2.566;2022-10-17T17:15:39;16.10;99.90
10492;DHT22;5293;51.464;-2.566;2022-10-17T17:18:05;16.00;99.90
10492;DHT22;5293;51.464;-2.566;2022-10-17T17:20:32;15.90;99.90
10492;DHT22;5293;51.464;-2.566;2022-10-17T17:22:57;15.80;99.90
10492;DHT22;5293;51.464;-2.566;2022-10-17T17:25:23;15.80;99.90
10492;DHT22;5293;51.464;-2.566;2022-10-17T17:27:49;15.70;99.90
10492;DHT22;5293;51.464;-2.566;2022-10-17T17:30:15;15.70;99.90
10492;DHT22;5293;51.464;-2.566;2022-10-17T17:32:40;15.60;99.90
10492;DHT22;5293;51.464;-2.566;2022-10-17T17:35:06;15.60;99.90
10492;DHT22;5293;51.464;-2.566;2022-10-17T17:37:33;15.80;99.90
10492;DHT22;5293;51.464;-2.566;2022-10-17T17:39:58;16.30;99.90
10492;DHT22;5293;51.464;-2.566;2022-10-17T17:42:24;15.70;99.90
10492;DHT22;5293;51.464;-2.566;2022-10-17T17:44:49;15.60;99.90
10492;DHT22;5293;51.464;-2.566;2022-10-17T17:47:16;15.50;99.90
10492;DHT22;5293;51.464;-2.566;2022-10-17T17:49:42;15.40;99.90
10492;DHT22;5293;51.464;-2.566;2022-10-17T17:52:07;15.30;99.90
10492;DHT22;5293;51.464;-2.566;2022-10-17T17:54:33;15.30;99.90
10492;DHT22;5293;51.464;-2.566;2022-10-17T17:56:59;15.30;99.90
10492;DHT22;5293;51.464;-2.566;2022-10-17T17:59:24;15.30;99.90
10492;DHT22;5293;51.464;-2.566;2022-10-17T18:01:50;15.20;99.90
10492;DHT22;5293;51.464;-2.566;2022-10-17T18:04:16;15.20;99.90
10492;DHT22;5293;51.464;-2.566;2022-10-17T18:06:41;15.20;99.90